Huvudsida
METAR-TAF:

METAR-TAF

Flygplatser :

Eros Airport

Windhoek, Namibia

latitud: 22-36-44S, longitud: 017-04-50E, höjd: 1699 m

Aktuellt väderrapport

Denna rapport gjordes för 1 timme och 23 minuter sedan, klockan 19:00 UTC
Vind 5 kt från nord/nordost
Temperatur 23°C
Fuktighet 61%
Tryck 1023 hPa

METAR: FYWE 221900Z AUTO 03005KT //// // ////// 23/15 Q1023

Tid: 22:23 (20:23 UTC)

Väderprognos

Denna rapport gjordes för 3 timmar och 23 minuter sedan, klockan 17:00 UTC
Prognos gäller från 22 kl. 18 UTC till 23 kl. 03 UTC
Vind 5 kt från nord
Sikt 10 km eller mer
Spridda moln på en höjd av 4000 ft, Cumulonimbus.
åska, lätt regn
Blir
från 22 kl. 20 UTC till 22 kl. 22 UTC
Vind 5 kt från sydväst
Få moln på en höjd av 3500 ft, Cumulonimbus.

TAF: FYWE 221700Z 2218/2303 36005KT 9999 -TSRA SCT040CB BECMG 2220/2222 22005KT NSW FEW035CB

Aktuella väderrapporter och prognoser från 4000 flygplatser (METAR- och TAF-rapporter).

De tillgängliga stationerna syns som gula och röda prickar på kartan.

För musen över prickarna för att se namnen på stationerna.

Klicka sedan för att få väderrapporter och prognoser.

För att ändra kartan: Klicka på de gröna knapparna med ett svart kors på för att zooma in; den gröna knappen med ett streck på för att zooma ut; eller på de gröna pilarna för angränsande kartor.


METAR-TAF: